HECA/CAI METAR and TAF weather

Enter ICAO airport designator
Station Type Date Time Source
HECA METAR 2018/12/12 05:00 UTC NOAA

HECA 120500Z 20007KT 9999 SCT030 18/08 Q1021 NOSIG


Station Type Date Time Source
HECA Decoded METAR 2018/12/12 05:00 UTC NOAA

Cairo Airport, Egypt (HECA) 30-08N 031-24E 74M
Dec 12, 2018 - 12:00 AM EST / 2018.12.12 0500 UTC
Wind: from the SSW (200 degrees) at 8 MPH (7 KT):0
Visibility: greater than 7 mile(s):0
Sky conditions: partly cloudy
Temperature: 64 F (18 C)
Dew Point: 46 F (8 C)
Relative Humidity: 51%
Pressure (altimeter): 30.15 in. Hg (1021 hPa)
ob: HECA 120500Z 20007KT 9999 SCT030 18/08 Q1021 NOSIG
cycle: 5

Station Type Date Time Source
HECA TAF 2018/12/11 18:40 UTC NOAA

TAF HECA 111700Z 1118/1224 23009KT 9999 SCT025 PROB30
TEMPO 1120/1208 4000 HZ NSC


Example: see airport list